createdAt,value
2024-03-26T00:00:54.135Z,0.00
2024-03-26T00:01:54.114Z,0.00
2024-03-26T00:02:54.110Z,0.00
2024-03-26T00:03:54.092Z,0.00
2024-03-26T00:04:54.177Z,0.00
2024-03-26T00:05:54.069Z,0.00
2024-03-26T00:06:54.057Z,0.00
2024-03-26T00:07:54.072Z,0.00
2024-03-26T00:08:54.049Z,0.00
2024-03-26T00:09:54.058Z,0.00
2024-03-26T00:10:54.009Z,0.00
2024-03-26T00:11:54.001Z,0.00
2024-03-26T00:12:53.986Z,0.00
2024-03-26T00:13:53.998Z,0.00
2024-03-26T00:14:53.984Z,0.00
2024-03-26T00:15:53.939Z,0.00
2024-03-26T00:16:53.961Z,0.00
2024-03-26T00:17:53.925Z,0.00
2024-03-26T00:18:53.932Z,0.00
2024-03-26T00:19:53.889Z,0.00
2024-03-26T00:20:53.881Z,0.00
2024-03-26T00:21:53.862Z,0.00
2024-03-26T00:22:53.915Z,0.00
2024-03-26T00:23:53.861Z,0.00
2024-03-26T00:24:53.826Z,0.00
2024-03-26T00:25:53.831Z,0.00
2024-03-26T00:26:53.812Z,0.00
2024-03-26T00:27:53.827Z,0.00
2024-03-26T00:28:53.798Z,0.00
2024-03-26T00:29:53.758Z,0.00
2024-03-26T00:30:53.754Z,0.00
2024-03-26T00:31:53.749Z,0.00
2024-03-26T00:32:53.743Z,0.00
2024-03-26T00:33:53.719Z,0.00
2024-03-26T00:34:53.708Z,0.00
2024-03-26T00:35:53.720Z,0.00
2024-03-26T00:36:53.692Z,0.00
2024-03-26T00:37:53.672Z,0.00
2024-03-26T00:38:53.649Z,0.00
2024-03-26T00:39:53.660Z,0.00
2024-03-26T00:40:53.630Z,0.00
2024-03-26T00:41:53.615Z,0.00
2024-03-26T00:42:53.602Z,0.00
2024-03-26T00:43:53.585Z,0.00
2024-03-26T00:44:53.609Z,0.00
2024-03-26T00:45:53.568Z,0.00
2024-03-26T00:46:53.557Z,0.00
2024-03-26T00:47:53.530Z,0.00
2024-03-26T00:48:53.536Z,0.00
2024-03-26T00:49:53.528Z,0.00
2024-03-26T00:50:53.512Z,0.00
2024-03-26T00:51:53.494Z,0.00
2024-03-26T00:52:53.490Z,0.00
2024-03-26T00:53:53.495Z,0.00
2024-03-26T00:54:53.441Z,0.00
2024-03-26T00:55:53.440Z,0.00
2024-03-26T00:56:53.425Z,0.00
2024-03-26T00:57:53.423Z,0.00
2024-03-26T00:58:53.403Z,0.00
2024-03-26T00:59:53.383Z,0.00
2024-03-26T01:00:53.378Z,0.00
2024-03-26T01:01:53.367Z,0.00
2024-03-26T01:02:53.377Z,0.00
2024-03-26T01:03:53.323Z,0.00
2024-03-26T01:04:53.339Z,0.00
2024-03-26T01:05:53.310Z,0.00
2024-03-26T01:06:53.295Z,0.00
2024-03-26T01:07:53.300Z,0.00
2024-03-26T01:08:53.266Z,0.00
2024-03-26T01:09:53.262Z,0.00
2024-03-26T01:10:53.244Z,0.00
2024-03-26T01:11:53.227Z,0.00
2024-03-26T01:12:53.242Z,0.00
2024-03-26T01:13:53.205Z,0.00
2024-03-26T01:14:53.207Z,0.00
2024-03-26T01:15:53.176Z,0.00
2024-03-26T01:16:53.187Z,0.00
2024-03-26T01:17:53.175Z,0.00
2024-03-26T01:18:53.174Z,0.00
2024-03-26T01:19:53.153Z,0.00
2024-03-26T01:20:53.138Z,0.00
2024-03-26T01:21:53.117Z,0.00
2024-03-26T01:22:53.093Z,0.00
2024-03-26T01:23:53.092Z,0.00
2024-03-26T01:24:53.064Z,0.00
2024-03-26T01:25:53.051Z,0.00
2024-03-26T01:26:53.060Z,0.00
2024-03-26T01:27:53.039Z,0.00
2024-03-26T01:28:53.024Z,0.00
2024-03-26T01:29:53.002Z,0.00
2024-03-26T01:30:53.005Z,0.00
2024-03-26T01:31:52.983Z,0.00
2024-03-26T01:32:53.061Z,0.00
2024-03-26T01:33:52.963Z,0.00
2024-03-26T01:34:52.964Z,0.00
2024-03-26T01:35:52.958Z,0.00
2024-03-26T01:36:52.970Z,0.00
2024-03-26T01:37:52.934Z,0.00
2024-03-26T01:38:52.892Z,0.00
2024-03-26T01:39:52.878Z,0.00
2024-03-26T01:40:52.878Z,0.00
2024-03-26T01:41:52.880Z,0.00
2024-03-26T01:42:52.845Z,0.00
2024-03-26T01:43:52.824Z,0.00
2024-03-26T01:44:52.813Z,0.00
2024-03-26T01:45:52.801Z,0.00
2024-03-26T01:46:52.832Z,0.00
2024-03-26T01:47:52.788Z,0.00
2024-03-26T01:48:52.760Z,0.00
2024-03-26T01:49:52.765Z,0.00
2024-03-26T01:50:52.769Z,0.00
2024-03-26T01:51:52.736Z,0.00
2024-03-26T01:52:52.720Z,0.00
2024-03-26T01:53:52.739Z,0.00
2024-03-26T01:54:52.680Z,0.00
2024-03-26T01:55:52.678Z,0.00
2024-03-26T01:56:52.659Z,0.00
2024-03-26T01:57:52.645Z,0.00
2024-03-26T01:58:52.652Z,0.00
2024-03-26T01:59:52.631Z,0.00
2024-03-26T02:00:52.640Z,0.00
2024-03-26T02:01:52.593Z,0.00
2024-03-26T02:02:52.625Z,0.00
2024-03-26T02:03:52.588Z,0.00
2024-03-26T02:04:52.565Z,0.00
2024-03-26T02:05:52.539Z,0.00
2024-03-26T02:06:52.540Z,0.00
2024-03-26T02:07:52.525Z,0.00
2024-03-26T02:08:52.532Z,0.00
2024-03-26T02:09:52.509Z,0.00
2024-03-26T02:10:52.473Z,0.00
2024-03-26T02:11:52.470Z,0.00
2024-03-26T02:12:52.453Z,0.00
2024-03-26T02:13:52.442Z,0.00
2024-03-26T02:14:52.466Z,0.00
2024-03-26T02:15:52.411Z,0.00
2024-03-26T02:16:52.399Z,0.00
2024-03-26T02:17:52.387Z,0.00
2024-03-26T02:18:52.389Z,0.00
2024-03-26T02:19:52.368Z,0.00
2024-03-26T02:20:52.352Z,0.00
2024-03-26T02:21:52.341Z,0.00
2024-03-26T02:22:52.327Z,0.00
2024-03-26T02:23:52.342Z,0.00
2024-03-26T02:24:52.295Z,0.00
2024-03-26T02:25:52.278Z,0.00
2024-03-26T02:26:52.272Z,0.00
2024-03-26T02:27:52.273Z,0.00
2024-03-26T02:28:52.266Z,0.00
2024-03-26T02:29:52.262Z,0.00
2024-03-26T02:30:52.227Z,0.00
2024-03-26T02:31:52.226Z,0.00
2024-03-26T02:32:52.206Z,0.00
2024-03-26T02:33:52.181Z,0.00
2024-03-26T02:34:52.178Z,0.00
2024-03-26T02:35:52.167Z,0.00
2024-03-26T02:36:52.157Z,0.00
2024-03-26T02:37:52.138Z,0.00
2024-03-26T02:38:52.119Z,0.00
2024-03-26T02:39:52.106Z,0.00
2024-03-26T02:40:52.107Z,0.00
2024-03-26T02:41:52.093Z,0.00
2024-03-26T02:42:52.080Z,0.00
2024-03-26T02:43:52.046Z,0.00
2024-03-26T02:44:52.063Z,0.00
2024-03-26T02:45:52.026Z,0.00
2024-03-26T02:46:52.043Z,0.00
2024-03-26T02:47:52.039Z,0.00
2024-03-26T02:48:52.012Z,0.00
2024-03-26T02:49:51.970Z,0.00
2024-03-26T02:50:52.019Z,0.00
2024-03-26T02:51:51.959Z,0.00
2024-03-26T02:52:51.946Z,0.00
2024-03-26T02:53:51.921Z,0.00
2024-03-26T02:54:51.918Z,0.00
2024-03-26T02:55:51.924Z,0.00
2024-03-26T02:56:51.938Z,0.00
2024-03-26T02:57:51.873Z,0.00
2024-03-26T02:58:51.876Z,0.00
2024-03-26T02:59:51.847Z,0.00
2024-03-26T03:00:51.849Z,0.00
2024-03-26T03:01:51.820Z,0.00
2024-03-26T03:02:51.831Z,0.00
2024-03-26T03:03:51.791Z,0.00
2024-03-26T03:04:51.796Z,0.00
2024-03-26T03:05:51.817Z,0.00
2024-03-26T03:06:51.763Z,0.00
2024-03-26T03:07:51.747Z,0.00
2024-03-26T03:08:51.754Z,0.00
2024-03-26T03:09:51.728Z,0.00
2024-03-26T03:10:51.753Z,0.00
2024-03-26T03:11:51.708Z,0.00
2024-03-26T03:12:51.692Z,0.00
2024-03-26T03:13:51.687Z,0.00
2024-03-26T03:14:51.669Z,0.00
2024-03-26T03:15:51.654Z,0.00
2024-03-26T03:16:51.663Z,0.00
2024-03-26T03:17:51.619Z,0.00
2024-03-26T03:18:51.613Z,0.00
2024-03-26T03:19:51.615Z,0.00
2024-03-26T03:20:51.577Z,0.00
2024-03-26T03:21:51.578Z,0.00
2024-03-26T03:22:51.579Z,0.00
2024-03-26T03:23:51.550Z,0.00
2024-03-26T03:24:51.523Z,0.00
2024-03-26T03:25:51.519Z,0.00
2024-03-26T03:26:51.515Z,0.00
2024-03-26T03:27:51.507Z,0.00
2024-03-26T03:28:51.491Z,0.00
2024-03-26T03:29:51.484Z,0.00
2024-03-26T03:30:51.452Z,0.00
2024-03-26T03:31:51.437Z,0.00
2024-03-26T03:32:51.502Z,0.00
2024-03-26T03:33:51.427Z,0.00
2024-03-26T03:34:51.398Z,0.00
2024-03-26T03:35:51.398Z,0.00
2024-03-26T03:36:51.380Z,0.00
2024-03-26T03:37:51.384Z,0.00
2024-03-26T03:38:51.386Z,0.00
2024-03-26T03:39:51.342Z,0.00
2024-03-26T03:40:51.333Z,0.00
2024-03-26T03:41:51.360Z,0.00
2024-03-26T03:42:51.304Z,0.00
2024-03-26T03:43:51.300Z,0.00
2024-03-26T03:44:51.277Z,0.00
2024-03-26T03:45:51.275Z,0.00
2024-03-26T03:46:51.257Z,0.00
2024-03-26T03:47:51.288Z,0.00
2024-03-26T03:48:51.222Z,0.00
2024-03-26T03:49:51.212Z,0.00
2024-03-26T03:50:51.256Z,0.00
2024-03-26T03:51:51.208Z,0.00
2024-03-26T03:52:51.215Z,0.00
2024-03-26T03:53:53.548Z,0.00
2024-03-26T03:54:51.161Z,0.00
2024-03-26T03:55:51.176Z,0.00
2024-03-26T03:56:51.158Z,0.00
2024-03-26T03:57:51.141Z,0.00
2024-03-26T03:58:51.110Z,0.00
2024-03-26T03:59:51.141Z,0.00
2024-03-26T04:00:51.077Z,0.00
2024-03-26T04:01:51.064Z,0.00
2024-03-26T04:02:51.111Z,0.00
2024-03-26T04:03:51.047Z,0.00
2024-03-26T04:04:51.022Z,0.00
2024-03-26T04:05:51.031Z,0.00
2024-03-26T04:06:51.011Z,0.00
2024-03-26T04:07:51.004Z,0.00
2024-03-26T04:08:50.989Z,0.00
2024-03-26T04:09:50.976Z,0.00
2024-03-26T04:10:50.959Z,0.00
2024-03-26T04:11:52.736Z,0.00
2024-03-26T04:12:50.928Z,0.00
2024-03-26T04:13:50.922Z,0.00
2024-03-26T04:14:50.937Z,0.00
2024-03-26T04:15:50.888Z,0.00
2024-03-26T04:16:50.873Z,0.00
2024-03-26T04:17:50.945Z,0.00
2024-03-26T04:18:50.836Z,0.00
2024-03-26T04:19:50.839Z,0.00
2024-03-26T04:20:50.880Z,0.00
2024-03-26T04:21:50.818Z,0.00
2024-03-26T04:22:50.804Z,0.00
2024-03-26T04:23:50.823Z,4.00
2024-03-26T04:24:50.791Z,0.00
2024-03-26T04:25:50.761Z,0.00
2024-03-26T04:26:50.764Z,4.00
2024-03-26T04:27:50.732Z,0.00
2024-03-26T04:28:50.746Z,4.00
2024-03-26T04:29:50.733Z,0.00
2024-03-26T04:30:50.699Z,0.00
2024-03-26T04:31:50.694Z,4.00
2024-03-26T04:32:50.708Z,4.00
2024-03-26T04:33:50.708Z,8.00
2024-03-26T04:34:50.629Z,4.00
2024-03-26T04:35:50.661Z,8.00
2024-03-26T04:36:50.609Z,8.00
2024-03-26T04:37:50.617Z,8.00
2024-03-26T04:38:50.658Z,8.00
2024-03-26T04:39:50.570Z,12.00
2024-03-26T04:40:50.556Z,12.00
2024-03-26T04:41:50.600Z,16.00
2024-03-26T04:42:50.545Z,24.00
2024-03-26T04:43:50.531Z,24.00
2024-03-26T04:44:50.560Z,28.00
2024-03-26T04:45:52.637Z,36.00
2024-03-26T04:46:50.493Z,40.00
2024-03-26T04:47:50.507Z,48.00
2024-03-26T04:48:50.460Z,52.00
2024-03-26T04:49:50.444Z,64.00
2024-03-26T04:50:50.450Z,72.00
2024-03-26T04:51:50.426Z,80.00
2024-03-26T04:52:50.425Z,88.00
2024-03-26T04:53:50.410Z,96.00
2024-03-26T04:54:50.377Z,108.00
2024-03-26T04:55:50.370Z,116.00
2024-03-26T04:56:50.433Z,128.00
2024-03-26T04:57:50.349Z,144.00
2024-03-26T04:58:50.350Z,164.00
2024-03-26T04:59:50.328Z,180.00
2024-03-26T05:00:50.308Z,200.00
2024-03-26T05:01:50.308Z,224.00
2024-03-26T05:02:50.295Z,248.00
2024-03-26T05:03:50.304Z,268.00
2024-03-26T05:04:50.273Z,296.00
2024-03-26T05:05:50.252Z,324.00
2024-03-26T05:06:50.231Z,352.00
2024-03-26T05:07:50.219Z,380.00
2024-03-26T05:08:50.221Z,420.00
2024-03-26T05:09:50.224Z,460.00
2024-03-26T05:10:50.190Z,504.00
2024-03-26T05:11:50.230Z,548.00
2024-03-26T05:12:50.150Z,592.00
2024-03-26T05:13:50.173Z,636.00
2024-03-26T05:14:50.145Z,688.00
2024-03-26T05:15:50.129Z,740.00
2024-03-26T05:16:50.107Z,796.00
2024-03-26T05:17:50.095Z,852.00
2024-03-26T05:18:50.072Z,940.00
2024-03-26T05:19:50.112Z,1104.00
2024-03-26T05:20:50.073Z,1692.00
2024-03-26T05:21:50.047Z,2016.00
2024-03-26T05:22:50.046Z,2160.00
2024-03-26T05:23:50.033Z,2252.00
2024-03-26T05:24:50.015Z,1784.00
2024-03-26T05:25:50.013Z,1552.00
2024-03-26T05:26:50.024Z,2088.00
2024-03-26T05:27:49.964Z,3236.00
2024-03-26T05:29:49.984Z,2832.00
2024-03-26T05:30:49.945Z,2000.00
2024-03-26T05:31:49.922Z,1992.00
2024-03-26T05:32:49.951Z,2040.00
2024-03-26T05:33:49.897Z,1992.00
2024-03-26T05:34:49.881Z,2324.00
2024-03-26T05:35:49.885Z,3300.00
2024-03-26T05:36:49.847Z,2908.00
2024-03-26T05:37:49.847Z,2204.00
2024-03-26T05:38:49.835Z,2568.00
2024-03-26T05:39:49.832Z,3892.00
2024-03-26T05:40:49.816Z,4880.00
2024-03-26T05:41:49.798Z,4440.00
2024-03-26T05:42:49.777Z,4084.00
2024-03-26T05:43:49.772Z,4384.00
2024-03-26T05:44:49.750Z,4156.00
2024-03-26T05:45:49.751Z,5748.00
2024-03-26T05:46:49.735Z,8800.00
2024-03-26T05:47:49.726Z,9312.00
2024-03-26T05:48:49.704Z,7548.00
2024-03-26T05:49:49.679Z,6020.00
2024-03-26T05:50:49.732Z,5012.00
2024-03-26T05:51:49.658Z,4772.00
2024-03-26T05:52:49.672Z,5664.00
2024-03-26T05:53:49.638Z,5988.00
2024-03-26T05:54:49.616Z,4480.00
2024-03-26T05:55:49.606Z,4160.00
2024-03-26T05:56:49.655Z,4336.00
2024-03-26T05:57:49.581Z,4408.00
2024-03-26T05:58:49.557Z,5056.00
2024-03-26T05:59:49.572Z,6808.00
2024-03-26T06:00:49.569Z,6492.00
2024-03-26T06:01:49.560Z,6344.00
2024-03-26T06:02:49.585Z,8152.00
2024-03-26T06:03:49.503Z,14624.00
2024-03-26T06:04:49.510Z,20256.00
2024-03-26T06:05:49.488Z,11904.00
2024-03-26T06:06:49.490Z,6488.00
2024-03-26T06:07:49.465Z,6004.00
2024-03-26T06:08:49.442Z,7352.00
2024-03-26T06:09:49.444Z,10972.00
2024-03-26T06:10:49.444Z,13856.00
2024-03-26T06:11:49.492Z,11776.00
2024-03-26T06:12:49.403Z,8900.00
2024-03-26T06:13:49.387Z,7644.00
2024-03-26T06:14:49.436Z,6968.00
2024-03-26T06:15:49.343Z,10956.00
2024-03-26T06:16:49.351Z,18208.00
2024-03-26T06:17:49.335Z,17248.00
2024-03-26T06:18:49.299Z,12028.00
2024-03-26T06:19:49.347Z,8372.00
2024-03-26T06:20:49.291Z,7192.00
2024-03-26T06:21:49.259Z,7264.00
2024-03-26T06:22:49.277Z,9516.00
2024-03-26T06:23:49.435Z,13728.00
2024-03-26T06:24:49.233Z,14080.00
2024-03-26T06:25:49.212Z,10116.00
2024-03-26T06:26:49.215Z,11656.00
2024-03-26T06:27:49.223Z,15104.00
2024-03-26T06:28:49.165Z,12528.00
2024-03-26T06:29:49.235Z,10164.00
2024-03-26T06:30:49.159Z,11496.00
2024-03-26T06:31:49.157Z,11460.00
2024-03-26T06:32:49.290Z,11268.00
2024-03-26T06:33:49.134Z,20544.00
2024-03-26T06:34:49.146Z,27872.00
2024-03-26T06:35:49.119Z,26816.00
2024-03-26T06:36:49.065Z,20128.00
2024-03-26T06:37:49.074Z,16064.00
2024-03-26T06:38:49.053Z,19552.00
2024-03-26T06:39:49.040Z,36096.00
2024-03-26T06:40:49.026Z,50784.00
2024-03-26T06:41:49.027Z,53568.00
2024-03-26T06:42:49.032Z,38272.00
2024-03-26T06:43:49.006Z,19968.00
2024-03-26T06:44:48.956Z,17024.00
2024-03-26T06:45:48.954Z,29664.00
2024-03-26T06:46:48.935Z,42016.00
2024-03-26T06:47:48.946Z,40864.00
2024-03-26T06:48:48.938Z,30560.00
2024-03-26T06:49:48.911Z,24032.00
2024-03-26T06:50:48.895Z,32064.00
2024-03-26T06:51:48.922Z,28992.00
2024-03-26T06:52:48.876Z,27200.00
2024-03-26T06:53:48.856Z,30048.00
2024-03-26T06:54:48.844Z,28352.00
2024-03-26T06:55:48.823Z,36736.00
2024-03-26T06:56:48.802Z,57056.00
2024-03-26T06:57:48.808Z,50464.00
2024-03-26T06:58:48.786Z,32096.00
2024-03-26T06:59:48.786Z,19040.00
2024-03-26T07:00:48.758Z,19520.00
2024-03-26T07:01:48.755Z,46208.00
2024-03-26T07:02:48.758Z,62048.00
2024-03-26T07:03:48.707Z,63552.00
2024-03-26T07:04:48.695Z,40480.00
2024-03-26T07:05:48.688Z,17664.00
2024-03-26T07:06:48.690Z,21280.00
2024-03-26T07:07:48.665Z,48608.00
2024-03-26T07:08:48.657Z,63904.00
2024-03-26T07:09:48.625Z,48864.00
2024-03-26T07:10:48.620Z,32736.00
2024-03-26T07:11:48.612Z,26816.00
2024-03-26T07:12:48.614Z,28576.00
2024-03-26T07:13:48.587Z,35712.00
2024-03-26T07:14:48.565Z,51744.00
2024-03-26T07:15:48.565Z,38784.00
2024-03-26T07:16:48.571Z,28992.00
2024-03-26T07:17:48.535Z,46080.00
2024-03-26T07:18:50.178Z,42656.00
2024-03-26T07:19:48.497Z,29984.00
2024-03-26T07:20:48.498Z,27584.00
2024-03-26T07:21:48.479Z,30304.00
2024-03-26T07:22:48.494Z,51712.00
2024-03-26T07:23:48.452Z,59552.00
2024-03-26T07:24:48.435Z,42368.00
2024-03-26T07:25:48.429Z,18656.00
2024-03-26T07:26:48.427Z,22880.00
2024-03-26T07:27:48.406Z,53344.00
2024-03-26T07:28:48.393Z,58464.00
2024-03-26T07:29:48.399Z,44576.00
2024-03-26T07:30:48.380Z,23456.00
2024-03-26T07:31:48.340Z,26208.00
2024-03-26T07:32:48.367Z,40192.00
2024-03-26T07:33:48.323Z,59872.00
2024-03-26T07:34:48.319Z,49120.00
2024-03-26T07:35:48.298Z,30016.00
2024-03-26T07:36:48.359Z,33120.00
2024-03-26T07:37:48.261Z,33248.00
2024-03-26T07:38:48.265Z,38080.00
2024-03-26T07:39:48.249Z,29248.00
2024-03-26T07:40:48.243Z,38048.00
2024-03-26T07:41:48.218Z,55264.00
2024-03-26T07:42:48.210Z,33440.00
2024-03-26T07:43:48.203Z,22720.00
2024-03-26T07:44:48.316Z,29280.00
2024-03-26T07:45:48.174Z,44416.00
2024-03-26T07:46:48.173Z,57568.00
2024-03-26T07:47:48.129Z,36416.00
2024-03-26T07:48:48.137Z,18912.00
2024-03-26T07:49:48.179Z,29600.00
2024-03-26T07:50:48.139Z,44256.00
2024-03-26T07:51:48.078Z,44096.00
2024-03-26T07:52:48.245Z,24128.00
2024-03-26T07:53:48.153Z,21792.00
2024-03-26T07:54:48.059Z,29216.00
2024-03-26T07:55:48.030Z,38048.00
2024-03-26T07:56:48.032Z,28256.00
2024-03-26T07:57:48.025Z,31424.00
2024-03-26T07:58:47.998Z,33248.00
2024-03-26T07:59:48.025Z,29792.00
2024-03-26T08:00:47.974Z,27776.00
2024-03-26T08:01:47.950Z,40160.00
2024-03-26T08:02:47.965Z,45312.00
2024-03-26T08:03:47.957Z,28960.00
2024-03-26T08:04:47.920Z,22336.00
2024-03-26T08:05:47.916Z,34432.00
2024-03-26T08:06:47.922Z,45920.00
2024-03-26T08:07:47.905Z,34112.00
2024-03-26T08:08:47.926Z,21280.00
2024-03-26T08:09:47.850Z,28512.00
2024-03-26T08:10:47.845Z,38720.00
2024-03-26T08:11:47.840Z,32064.00
2024-03-26T08:12:47.814Z,22624.00
2024-03-26T08:13:47.819Z,24768.00
2024-03-26T08:14:47.836Z,23968.00
2024-03-26T08:15:47.786Z,22208.00
2024-03-26T08:16:47.900Z,23680.00
2024-03-26T08:17:47.769Z,23616.00
2024-03-26T08:18:47.756Z,19136.00
2024-03-26T08:19:47.735Z,20416.00
2024-03-26T08:20:47.747Z,21632.00
2024-03-26T08:21:47.695Z,14448.00
2024-03-26T08:22:47.692Z,9896.00
2024-03-26T08:23:47.710Z,8364.00
2024-03-26T08:24:47.688Z,7940.00
2024-03-26T08:25:47.683Z,7740.00
2024-03-26T08:26:47.628Z,7504.00
2024-03-26T08:27:47.629Z,7308.00
2024-03-26T08:28:47.605Z,6972.00
2024-03-26T08:29:47.622Z,6840.00
2024-03-26T08:30:47.585Z,6764.00
2024-03-26T08:31:47.572Z,6688.00
2024-03-26T08:32:47.572Z,6736.00
2024-03-26T08:33:47.547Z,6644.00
2024-03-26T08:34:47.549Z,6632.00
2024-03-26T08:35:47.522Z,6632.00
2024-03-26T08:36:47.486Z,6432.00
2024-03-26T08:37:47.471Z,6396.00
2024-03-26T08:38:47.498Z,6376.00
2024-03-26T08:39:47.483Z,6276.00
2024-03-26T08:40:47.442Z,6396.00
2024-03-26T08:41:47.427Z,6484.00
2024-03-26T08:42:47.418Z,6604.00
2024-03-26T08:43:47.428Z,6500.00
2024-03-26T08:44:47.405Z,6680.00
2024-03-26T08:45:47.400Z,6632.00
2024-03-26T08:46:47.360Z,6576.00
2024-03-26T08:47:47.355Z,6720.00
2024-03-26T08:48:47.371Z,6648.00
2024-03-26T08:49:47.325Z,6448.00
2024-03-26T08:50:47.327Z,6616.00
2024-03-26T08:51:48.767Z,6632.00
2024-03-26T08:52:47.299Z,6552.00
2024-03-26T08:53:47.283Z,6508.00
2024-03-26T08:54:47.259Z,6496.00
2024-03-26T08:55:47.265Z,6404.00
2024-03-26T08:56:47.240Z,6332.00
2024-03-26T08:57:47.231Z,6232.00
2024-03-26T08:58:47.214Z,6276.00
2024-03-26T08:59:47.189Z,6252.00
2024-03-26T09:00:47.193Z,6156.00
2024-03-26T09:01:47.778Z,6156.00
2024-03-26T09:02:47.193Z,6108.00
2024-03-26T09:03:47.149Z,6008.00
2024-03-26T09:04:47.130Z,5984.00
2024-03-26T09:05:47.113Z,5896.00
2024-03-26T09:06:47.140Z,5868.00
2024-03-26T09:07:47.112Z,5848.00
2024-03-26T09:08:47.072Z,5800.00
2024-03-26T09:09:47.068Z,5744.00
2024-03-26T09:10:47.056Z,5644.00
2024-03-26T09:11:47.040Z,5592.00
2024-03-26T09:12:47.048Z,5520.00
2024-03-26T09:13:47.021Z,5500.00
2024-03-26T09:14:46.996Z,5352.00
2024-03-26T09:15:47.017Z,5416.00
2024-03-26T09:16:47.014Z,5344.00
2024-03-26T09:17:47.043Z,5372.00
2024-03-26T09:18:46.987Z,5380.00
2024-03-26T09:19:46.922Z,5284.00
2024-03-26T09:20:46.927Z,5284.00
2024-03-26T09:21:46.922Z,5236.00
2024-03-26T09:22:46.901Z,5184.00
2024-03-26T09:23:46.873Z,5124.00
2024-03-26T09:24:50.715Z,5012.00
2024-03-26T09:25:46.864Z,4936.00
2024-03-26T09:26:46.867Z,4972.00
2024-03-26T09:27:46.831Z,5004.00
2024-03-26T09:28:46.814Z,5052.00
2024-03-26T09:29:46.821Z,5040.00
2024-03-26T09:30:46.791Z,4980.00
2024-03-26T09:31:46.840Z,4900.00
2024-03-26T09:32:46.766Z,4860.00
2024-03-26T09:33:46.754Z,4852.00
2024-03-26T09:34:46.740Z,4812.00
2024-03-26T09:35:47.369Z,4636.00
2024-03-26T09:36:46.706Z,4676.00
2024-03-26T09:37:46.676Z,4664.00
2024-03-26T09:38:48.823Z,4656.00
2024-03-26T09:39:46.676Z,4752.00
2024-03-26T09:40:46.665Z,4772.00
2024-03-26T09:41:46.629Z,4624.00
2024-03-26T09:42:46.629Z,4500.00
2024-03-26T09:43:46.618Z,4484.00
2024-03-26T09:44:55.109Z,4532.00
2024-03-26T09:45:47.625Z,4536.00
2024-03-26T09:46:46.591Z,4552.00
2024-03-26T09:47:46.556Z,4560.00
2024-03-26T09:48:46.566Z,4548.00
2024-03-26T09:49:46.525Z,4460.00
2024-03-26T09:50:46.520Z,4436.00
2024-03-26T09:51:46.497Z,4480.00
2024-03-26T09:52:46.496Z,4460.00
2024-03-26T09:53:46.505Z,4444.00
2024-03-26T09:54:46.471Z,4436.00
2024-03-26T09:55:46.445Z,4388.00
2024-03-26T09:56:46.432Z,4376.00
2024-03-26T09:57:46.443Z,4324.00
2024-03-26T09:58:46.447Z,4312.00
2024-03-26T09:59:46.398Z,4260.00
2024-03-26T10:00:46.394Z,4220.00
2024-03-26T10:01:46.375Z,4184.00
2024-03-26T10:02:46.371Z,4028.00
2024-03-26T10:03:46.369Z,4232.00
2024-03-26T10:04:46.321Z,4232.00
2024-03-26T10:05:46.361Z,4244.00
2024-03-26T10:06:46.315Z,4240.00
2024-03-26T10:07:46.310Z,4244.00
2024-03-26T10:08:46.268Z,4228.00
2024-03-26T10:09:46.260Z,4196.00
2024-03-26T10:10:46.259Z,4112.00
2024-03-26T10:11:46.273Z,4088.00
2024-03-26T10:12:46.232Z,4036.00
2024-03-26T10:13:46.222Z,4124.00
2024-03-26T10:14:46.193Z,4168.00
2024-03-26T10:15:46.220Z,4152.00
2024-03-26T10:16:46.193Z,4192.00
2024-03-26T10:17:46.174Z,4108.00
2024-03-26T10:18:46.166Z,4084.00
2024-03-26T10:19:46.131Z,4088.00
2024-03-26T10:20:46.157Z,4072.00
2024-03-26T10:21:46.110Z,4096.00
2024-03-26T10:22:46.780Z,4108.00
2024-03-26T10:23:46.081Z,4120.00
2024-03-26T10:24:46.094Z,4128.00
2024-03-26T10:25:46.066Z,4112.00
2024-03-26T10:26:46.031Z,4116.00
2024-03-26T10:27:46.022Z,4084.00
2024-03-26T10:28:46.009Z,4136.00
2024-03-26T10:29:45.998Z,4100.00
2024-03-26T10:30:45.995Z,3884.00
2024-03-26T10:31:45.997Z,4076.00
2024-03-26T10:32:45.955Z,4128.00
2024-03-26T10:33:45.959Z,4168.00
2024-03-26T10:34:45.955Z,4172.00
2024-03-26T10:35:45.961Z,4148.00
2024-03-26T10:36:45.914Z,4136.00
2024-03-26T10:37:45.909Z,4136.00
2024-03-26T10:38:53.932Z,4148.00
2024-03-26T10:39:46.921Z,4168.00
2024-03-26T10:40:45.853Z,4168.00
2024-03-26T10:41:45.842Z,4184.00
2024-03-26T10:42:45.851Z,4192.00
2024-03-26T10:43:45.838Z,4180.00
2024-03-26T10:44:45.820Z,4100.00
2024-03-26T10:45:59.954Z,3916.00
2024-03-26T10:46:48.253Z,3844.00
2024-03-26T10:47:45.781Z,3988.00
2024-03-26T10:48:54.296Z,4024.00
2024-03-26T10:49:46.740Z,4148.00
2024-03-26T10:50:45.755Z,4184.00
2024-03-26T10:51:45.745Z,4140.00
2024-03-26T10:52:45.820Z,4128.00
2024-03-26T10:53:45.711Z,4192.00
2024-03-26T10:54:45.665Z,4180.00
2024-03-26T10:55:45.659Z,4036.00
2024-03-26T10:56:45.646Z,4092.00
2024-03-26T10:57:45.640Z,3776.00
2024-03-26T10:58:45.621Z,3920.00
2024-03-26T10:59:45.609Z,3972.00
2024-03-26T11:00:45.633Z,3964.00
2024-03-26T11:01:45.580Z,3988.00
2024-03-26T11:02:54.646Z,3988.00
2024-03-26T11:03:45.583Z,3900.00
2024-03-26T11:04:45.593Z,3852.00
2024-03-26T11:05:45.524Z,3892.00
2024-03-26T11:06:45.629Z,3932.00
2024-03-26T11:07:45.515Z,3980.00
2024-03-26T11:08:45.503Z,3832.00
2024-03-26T11:09:45.478Z,3744.00
2024-03-26T11:10:45.454Z,3624.00
2024-03-26T11:11:45.485Z,3636.00
2024-03-26T11:12:45.429Z,3724.00
2024-03-26T11:13:45.433Z,3668.00
2024-03-26T11:14:45.402Z,3716.00
2024-03-26T11:15:45.395Z,3576.00
2024-03-26T11:16:45.389Z,3668.00
2024-03-26T11:17:45.386Z,3732.00
2024-03-26T11:18:45.348Z,3720.00
2024-03-26T11:19:45.333Z,3716.00
2024-03-26T11:20:45.360Z,3744.00
2024-03-26T11:21:46.349Z,3784.00
2024-03-26T11:22:45.286Z,3740.00
2024-03-26T11:23:45.295Z,3760.00
2024-03-26T11:24:45.277Z,3660.00
2024-03-26T11:25:45.271Z,3580.00
2024-03-26T11:26:45.249Z,3640.00
2024-03-26T11:27:45.223Z,3640.00
2024-03-26T11:28:45.235Z,3644.00
2024-03-26T11:29:45.220Z,3640.00
2024-03-26T11:30:45.230Z,3600.00
2024-03-26T11:31:45.184Z,3668.00
2024-03-26T11:32:45.175Z,3768.00
2024-03-26T11:33:45.171Z,3824.00
2024-03-26T11:34:45.149Z,3832.00
2024-03-26T11:35:45.131Z,3780.00
2024-03-26T11:36:45.115Z,3728.00
2024-03-26T11:37:45.094Z,3632.00
2024-03-26T11:38:45.099Z,3492.00
2024-03-26T11:39:45.094Z,3432.00
2024-03-26T11:40:45.070Z,3300.00
2024-03-26T11:41:45.052Z,3192.00
2024-03-26T11:42:45.070Z,3140.00
2024-03-26T11:43:45.038Z,3304.00
2024-03-26T11:44:45.026Z,3448.00
2024-03-26T11:45:44.992Z,3520.00
2024-03-26T11:46:44.977Z,3604.00
2024-03-26T11:47:45.002Z,3676.00
2024-03-26T11:48:44.956Z,3764.00
2024-03-26T11:49:44.956Z,3824.00
2024-03-26T11:50:44.926Z,3852.00
2024-03-26T11:51:44.940Z,3880.00
2024-03-26T11:52:44.895Z,3904.00
2024-03-26T11:53:44.906Z,3956.00
2024-03-26T11:54:44.878Z,3960.00
2024-03-26T11:55:44.859Z,3936.00
2024-03-26T11:56:44.860Z,3940.00
2024-03-26T11:57:44.852Z,4040.00
2024-03-26T11:58:44.830Z,4016.00
2024-03-26T11:59:44.814Z,3984.00
2024-03-26T12:00:44.789Z,3960.00
2024-03-26T12:01:44.798Z,3916.00
2024-03-26T12:02:44.785Z,3908.00
2024-03-26T12:03:44.781Z,3804.00
2024-03-26T12:04:44.743Z,3820.00
2024-03-26T12:05:44.728Z,3920.00
2024-03-26T12:06:44.748Z,3912.00
2024-03-26T12:07:44.713Z,3884.00
2024-03-26T12:08:44.695Z,3860.00
2024-03-26T12:09:44.720Z,3808.00
2024-03-26T12:10:44.681Z,3768.00
2024-03-26T12:11:44.658Z,3740.00
2024-03-26T12:12:44.669Z,3672.00
2024-03-26T12:13:44.618Z,3640.00
2024-03-26T12:14:45.543Z,3660.00
2024-03-26T12:15:44.600Z,3628.00
2024-03-26T12:16:44.606Z,3740.00
2024-03-26T12:17:44.589Z,3832.00
2024-03-26T12:18:44.563Z,3896.00
2024-03-26T12:19:44.551Z,3920.00
2024-03-26T12:20:44.536Z,3928.00
2024-03-26T12:21:44.544Z,3912.00
2024-03-26T12:22:44.512Z,3876.00
2024-03-26T12:23:44.502Z,3700.00
2024-03-26T12:24:44.480Z,3788.00
2024-03-26T12:25:44.463Z,3816.00
2024-03-26T12:26:44.453Z,3848.00
2024-03-26T12:27:46.645Z,3876.00
2024-03-26T12:28:44.450Z,3852.00
2024-03-26T12:29:44.412Z,3860.00